sensor_id;sensor_type;location;lat;lon;timestamp;P1;durP1;ratioP1;P2;durP2;ratioP2
1601;SDS011;794;48.592;9.634;2022-07-26T00:01:46;5.20;;;2.33;;
1601;SDS011;794;48.592;9.634;2022-07-26T00:04:13;3.10;;;2.00;;
1601;SDS011;794;48.592;9.634;2022-07-26T00:06:41;2.30;;;2.10;;
1601;SDS011;794;48.592;9.634;2022-07-26T00:09:08;2.67;;;1.90;;
1601;SDS011;794;48.592;9.634;2022-07-26T00:11:35;11.43;;;2.60;;
1601;SDS011;794;48.592;9.634;2022-07-26T00:14:05;5.00;;;2.10;;
1601;SDS011;794;48.592;9.634;2022-07-26T00:16:33;5.73;;;1.97;;
1601;SDS011;794;48.592;9.634;2022-07-26T00:19:00;2.70;;;2.07;;
1601;SDS011;794;48.592;9.634;2022-07-26T00:21:27;2.80;;;1.90;;
1601;SDS011;794;48.592;9.634;2022-07-26T00:23:55;3.83;;;2.33;;
1601;SDS011;794;48.592;9.634;2022-07-26T00:26:22;3.20;;;2.17;;
1601;SDS011;794;48.592;9.634;2022-07-26T00:28:49;3.53;;;2.50;;
1601;SDS011;794;48.592;9.634;2022-07-26T00:31:17;5.90;;;2.07;;
1601;SDS011;794;48.592;9.634;2022-07-26T00:33:44;4.90;;;2.20;;
1601;SDS011;794;48.592;9.634;2022-07-26T00:36:12;2.80;;;2.03;;
1601;SDS011;794;48.592;9.634;2022-07-26T00:38:39;2.53;;;2.30;;
1601;SDS011;794;48.592;9.634;2022-07-26T00:41:06;2.20;;;1.93;;
1601;SDS011;794;48.592;9.634;2022-07-26T00:43:33;3.60;;;2.33;;
1601;SDS011;794;48.592;9.634;2022-07-26T00:46:01;2.70;;;1.70;;
1601;SDS011;794;48.592;9.634;2022-07-26T00:48:29;2.27;;;1.47;;
1601;SDS011;794;48.592;9.634;2022-07-26T00:50:57;3.93;;;1.80;;
1601;SDS011;794;48.592;9.634;2022-07-26T00:53:24;3.00;;;2.30;;
1601;SDS011;794;48.592;9.634;2022-07-26T00:55:51;5.10;;;1.93;;
1601;SDS011;794;48.592;9.634;2022-07-26T00:58:18;3.73;;;2.20;;
1601;SDS011;794;48.592;9.634;2022-07-26T01:00:45;2.10;;;2.00;;
1601;SDS011;794;48.592;9.634;2022-07-26T01:03:13;3.20;;;1.77;;
1601;SDS011;794;48.592;9.634;2022-07-26T01:05:41;4.57;;;2.13;;
1601;SDS011;794;48.592;9.634;2022-07-26T01:08:08;4.80;;;1.97;;
1601;SDS011;794;48.592;9.634;2022-07-26T01:10:35;3.50;;;2.00;;
1601;SDS011;794;48.592;9.634;2022-07-26T01:13:04;10.03;;;2.47;;
1601;SDS011;794;48.592;9.634;2022-07-26T01:15:31;6.53;;;2.40;;
1601;SDS011;794;48.592;9.634;2022-07-26T01:17:58;3.13;;;1.80;;
1601;SDS011;794;48.592;9.634;2022-07-26T01:20:25;4.83;;;2.13;;
1601;SDS011;794;48.592;9.634;2022-07-26T01:22:54;4.23;;;2.20;;
1601;SDS011;794;48.592;9.634;2022-07-26T01:25:27;6.13;;;2.00;;
1601;SDS011;794;48.592;9.634;2022-07-26T01:27:55;3.07;;;1.80;;
1601;SDS011;794;48.592;9.634;2022-07-26T01:30:22;4.30;;;2.10;;
1601;SDS011;794;48.592;9.634;2022-07-26T01:32:49;2.13;;;1.93;;
1601;SDS011;794;48.592;9.634;2022-07-26T01:35:17;2.20;;;2.00;;
1601;SDS011;794;48.592;9.634;2022-07-26T01:37:44;1.70;;;1.60;;
1601;SDS011;794;48.592;9.634;2022-07-26T01:40:13;1.93;;;1.73;;
1601;SDS011;794;48.592;9.634;2022-07-26T01:42:40;5.50;;;2.30;;
1601;SDS011;794;48.592;9.634;2022-07-26T01:45:08;5.80;;;2.07;;
1601;SDS011;794;48.592;9.634;2022-07-26T01:47:35;1.93;;;1.73;;
1601;SDS011;794;48.592;9.634;2022-07-26T01:50:02;2.10;;;1.70;;
1601;SDS011;794;48.592;9.634;2022-07-26T01:52:30;8.50;;;1.93;;
1601;SDS011;794;48.592;9.634;2022-07-26T01:54:59;2.73;;;2.10;;
1601;SDS011;794;48.592;9.634;2022-07-26T01:57:27;5.67;;;2.07;;
1601;SDS011;794;48.592;9.634;2022-07-26T01:59:54;2.90;;;1.87;;
1601;SDS011;794;48.592;9.634;2022-07-26T02:02:22;2.20;;;1.70;;
1601;SDS011;794;48.592;9.634;2022-07-26T02:04:49;3.40;;;1.90;;
1601;SDS011;794;48.592;9.634;2022-07-26T02:07:26;2.50;;;1.53;;
1601;SDS011;794;48.592;9.634;2022-07-26T02:09:54;5.53;;;2.07;;
1601;SDS011;794;48.592;9.634;2022-07-26T02:12:21;3.80;;;2.07;;
1601;SDS011;794;48.592;9.634;2022-07-26T02:14:50;2.33;;;2.13;;
1601;SDS011;794;48.592;9.634;2022-07-26T02:17:17;5.63;;;2.03;;
1601;SDS011;794;48.592;9.634;2022-07-26T02:19:45;4.90;;;1.83;;
1601;SDS011;794;48.592;9.634;2022-07-26T02:22:13;6.43;;;2.40;;
1601;SDS011;794;48.592;9.634;2022-07-26T02:24:40;5.80;;;2.83;;
1601;SDS011;794;48.592;9.634;2022-07-26T02:27:08;2.80;;;2.27;;
1601;SDS011;794;48.592;9.634;2022-07-26T02:29:35;4.93;;;1.97;;
1601;SDS011;794;48.592;9.634;2022-07-26T02:32:04;6.30;;;2.57;;
1601;SDS011;794;48.592;9.634;2022-07-26T02:34:32;2.83;;;2.20;;
1601;SDS011;794;48.592;9.634;2022-07-26T02:36:59;4.20;;;1.80;;
1601;SDS011;794;48.592;9.634;2022-07-26T02:39:26;3.73;;;2.43;;
1601;SDS011;794;48.592;9.634;2022-07-26T02:41:54;2.37;;;2.17;;
1601;SDS011;794;48.592;9.634;2022-07-26T02:44:21;2.63;;;2.43;;
1601;SDS011;794;48.592;9.634;2022-07-26T02:46:49;2.63;;;2.40;;
1601;SDS011;794;48.592;9.634;2022-07-26T02:49:18;3.00;;;2.60;;
1601;SDS011;794;48.592;9.634;2022-07-26T02:51:46;3.53;;;2.57;;
1601;SDS011;794;48.592;9.634;2022-07-26T02:54:13;4.10;;;1.90;;
1601;SDS011;794;48.592;9.634;2022-07-26T02:56:41;3.07;;;2.00;;
1601;SDS011;794;48.592;9.634;2022-07-26T02:59:08;5.77;;;2.17;;
1601;SDS011;794;48.592;9.634;2022-07-26T03:01:35;2.47;;;2.27;;
1601;SDS011;794;48.592;9.634;2022-07-26T03:04:03;2.30;;;2.10;;
1601;SDS011;794;48.592;9.634;2022-07-26T03:06:33;2.60;;;2.40;;
1601;SDS011;794;48.592;9.634;2022-07-26T03:09:00;2.63;;;2.37;;
1601;SDS011;794;48.592;9.634;2022-07-26T03:11:27;1.80;;;1.70;;
1601;SDS011;794;48.592;9.634;2022-07-26T03:13:54;3.20;;;2.50;;
1601;SDS011;794;48.592;9.634;2022-07-26T03:16:21;1.93;;;1.70;;
1601;SDS011;794;48.592;9.634;2022-07-26T03:18:49;2.80;;;2.57;;
1601;SDS011;794;48.592;9.634;2022-07-26T03:21:15;3.10;;;2.17;;
1601;SDS011;794;48.592;9.634;2022-07-26T03:23:44;3.00;;;2.20;;
1601;SDS011;794;48.592;9.634;2022-07-26T03:26:11;3.40;;;2.20;;
1601;SDS011;794;48.592;9.634;2022-07-26T03:28:39;2.50;;;2.20;;
1601;SDS011;794;48.592;9.634;2022-07-26T03:31:08;2.60;;;2.40;;
1601;SDS011;794;48.592;9.634;2022-07-26T03:33:35;5.60;;;2.40;;
1601;SDS011;794;48.592;9.634;2022-07-26T03:36:03;2.63;;;1.70;;
1601;SDS011;794;48.592;9.634;2022-07-26T03:38:30;2.50;;;2.10;;
1601;SDS011;794;48.592;9.634;2022-07-26T03:40:59;3.97;;;2.10;;
1601;SDS011;794;48.592;9.634;2022-07-26T03:43:25;2.40;;;2.20;;
1601;SDS011;794;48.592;9.634;2022-07-26T03:45:53;2.33;;;2.13;;
1601;SDS011;794;48.592;9.634;2022-07-26T03:48:20;3.50;;;2.73;;
1601;SDS011;794;48.592;9.634;2022-07-26T03:50:47;2.33;;;2.13;;
1601;SDS011;794;48.592;9.634;2022-07-26T03:53:14;5.03;;;2.20;;
1601;SDS011;794;48.592;9.634;2022-07-26T03:55:41;1.93;;;1.83;;
1601;SDS011;794;48.592;9.634;2022-07-26T03:58:27;3.30;;;2.50;;
1601;SDS011;794;48.592;9.634;2022-07-26T04:00:54;2.43;;;2.20;;
1601;SDS011;794;48.592;9.634;2022-07-26T04:03:21;6.03;;;2.67;;
1601;SDS011;794;48.592;9.634;2022-07-26T04:05:47;2.90;;;2.13;;
1601;SDS011;794;48.592;9.634;2022-07-26T04:08:15;2.50;;;2.30;;
1601;SDS011;794;48.592;9.634;2022-07-26T04:10:43;2.43;;;2.23;;
1601;SDS011;794;48.592;9.634;2022-07-26T04:13:11;2.40;;;1.93;;
1601;SDS011;794;48.592;9.634;2022-07-26T04:15:39;3.67;;;2.20;;
1601;SDS011;794;48.592;9.634;2022-07-26T04:18:06;3.57;;;2.30;;
1601;SDS011;794;48.592;9.634;2022-07-26T04:20:33;2.27;;;2.07;;
1601;SDS011;794;48.592;9.634;2022-07-26T04:23:00;5.30;;;2.17;;
1601;SDS011;794;48.592;9.634;2022-07-26T04:25:28;5.30;;;2.37;;
1601;SDS011;794;48.592;9.634;2022-07-26T04:27:55;4.60;;;1.90;;
1601;SDS011;794;48.592;9.634;2022-07-26T04:30:22;3.47;;;2.37;;
1601;SDS011;794;48.592;9.634;2022-07-26T04:32:50;4.60;;;2.20;;
1601;SDS011;794;48.592;9.634;2022-07-26T04:35:17;2.60;;;1.80;;
1601;SDS011;794;48.592;9.634;2022-07-26T04:37:45;2.90;;;2.63;;
1601;SDS011;794;48.592;9.634;2022-07-26T04:40:14;2.70;;;2.10;;
1601;SDS011;794;48.592;9.634;2022-07-26T04:42:43;2.33;;;1.93;;
1601;SDS011;794;48.592;9.634;2022-07-26T04:45:11;2.47;;;2.20;;
1601;SDS011;794;48.592;9.634;2022-07-26T04:47:39;2.50;;;2.30;;
1601;SDS011;794;48.592;9.634;2022-07-26T04:50:09;4.03;;;2.33;;
1601;SDS011;794;48.592;9.634;2022-07-26T04:52:37;3.87;;;2.33;;
1601;SDS011;794;48.592;9.634;2022-07-26T04:55:04;6.13;;;2.43;;
1601;SDS011;794;48.592;9.634;2022-07-26T04:57:31;3.00;;;2.40;;
1601;SDS011;794;48.592;9.634;2022-07-26T04:59:59;2.00;;;1.87;;
1601;SDS011;794;48.592;9.634;2022-07-26T05:02:26;2.23;;;2.00;;
1601;SDS011;794;48.592;9.634;2022-07-26T05:04:53;2.40;;;1.80;;
1601;SDS011;794;48.592;9.634;2022-07-26T05:07:22;3.90;;;2.57;;
1601;SDS011;794;48.592;9.634;2022-07-26T05:09:49;2.40;;;2.20;;
1601;SDS011;794;48.592;9.634;2022-07-26T05:12:16;4.30;;;2.13;;
1601;SDS011;794;48.592;9.634;2022-07-26T05:14:43;7.53;;;2.10;;
1601;SDS011;794;48.592;9.634;2022-07-26T05:17:10;3.53;;;2.50;;
1601;SDS011;794;48.592;9.634;2022-07-26T05:19:37;9.20;;;3.07;;
1601;SDS011;794;48.592;9.634;2022-07-26T05:22:04;3.13;;;2.30;;
1601;SDS011;794;48.592;9.634;2022-07-26T05:24:32;2.90;;;2.30;;
1601;SDS011;794;48.592;9.634;2022-07-26T05:26:59;2.17;;;1.60;;
1601;SDS011;794;48.592;9.634;2022-07-26T05:29:26;3.53;;;2.20;;
1601;SDS011;794;48.592;9.634;2022-07-26T05:31:53;2.80;;;2.33;;
1601;SDS011;794;48.592;9.634;2022-07-26T05:34:20;2.43;;;2.23;;
1601;SDS011;794;48.592;9.634;2022-07-26T05:36:48;2.30;;;2.10;;
1601;SDS011;794;48.592;9.634;2022-07-26T05:39:15;2.10;;;2.00;;
1601;SDS011;794;48.592;9.634;2022-07-26T05:41:43;2.33;;;1.77;;
1601;SDS011;794;48.592;9.634;2022-07-26T05:44:10;2.40;;;2.13;;
1601;SDS011;794;48.592;9.634;2022-07-26T05:46:37;3.37;;;1.97;;
1601;SDS011;794;48.592;9.634;2022-07-26T05:49:04;2.40;;;2.00;;
1601;SDS011;794;48.592;9.634;2022-07-26T05:51:32;1.87;;;1.50;;
1601;SDS011;794;48.592;9.634;2022-07-26T05:53:59;2.30;;;1.70;;
1601;SDS011;794;48.592;9.634;2022-07-26T05:56:26;3.40;;;1.67;;
1601;SDS011;794;48.592;9.634;2022-07-26T05:58:54;6.13;;;2.10;;
1601;SDS011;794;48.592;9.634;2022-07-26T06:01:21;1.50;;;1.40;;
1601;SDS011;794;48.592;9.634;2022-07-26T06:03:48;1.73;;;1.57;;
1601;SDS011;794;48.592;9.634;2022-07-26T06:06:14;2.40;;;2.20;;
1601;SDS011;794;48.592;9.634;2022-07-26T06:08:41;3.07;;;1.80;;
1601;SDS011;794;48.592;9.634;2022-07-26T06:11:08;1.97;;;1.77;;
1601;SDS011;794;48.592;9.634;2022-07-26T06:13:35;2.87;;;2.33;;
1601;SDS011;794;48.592;9.634;2022-07-26T06:16:04;3.43;;;2.10;;
1601;SDS011;794;48.592;9.634;2022-07-26T06:18:31;3.03;;;2.00;;
1601;SDS011;794;48.592;9.634;2022-07-26T06:20:58;2.53;;;1.80;;
1601;SDS011;794;48.592;9.634;2022-07-26T06:23:25;2.10;;;1.50;;
1601;SDS011;794;48.592;9.634;2022-07-26T06:25:52;1.70;;;1.40;;
1601;SDS011;794;48.592;9.634;2022-07-26T06:28:18;5.10;;;1.63;;
1601;SDS011;794;48.592;9.634;2022-07-26T06:30:45;3.17;;;2.17;;
1601;SDS011;794;48.592;9.634;2022-07-26T06:33:14;2.40;;;1.73;;
1601;SDS011;794;48.592;9.634;2022-07-26T06:35:41;2.77;;;1.97;;
1601;SDS011;794;48.592;9.634;2022-07-26T06:38:08;1.80;;;1.70;;
1601;SDS011;794;48.592;9.634;2022-07-26T06:40:35;2.10;;;2.00;;
1601;SDS011;794;48.592;9.634;2022-07-26T06:43:02;3.37;;;2.00;;
1601;SDS011;794;48.592;9.634;2022-07-26T06:45:29;1.80;;;1.53;;
1601;SDS011;794;48.592;9.634;2022-07-26T06:47:57;1.90;;;1.80;;
1601;SDS011;794;48.592;9.634;2022-07-26T06:50:25;1.93;;;1.80;;
1601;SDS011;794;48.592;9.634;2022-07-26T06:52:52;3.47;;;1.93;;
1601;SDS011;794;48.592;9.634;2022-07-26T06:55:19;2.50;;;2.13;;
1601;SDS011;794;48.592;9.634;2022-07-26T06:57:46;2.93;;;2.17;;
1601;SDS011;794;48.592;9.634;2022-07-26T07:00:13;2.83;;;2.27;;
1601;SDS011;794;48.592;9.634;2022-07-26T07:02:41;2.43;;;2.17;;
1601;SDS011;794;48.592;9.634;2022-07-26T07:05:08;2.43;;;2.13;;
1601;SDS011;794;48.592;9.634;2022-07-26T07:07:37;2.33;;;2.17;;
1601;SDS011;794;48.592;9.634;2022-07-26T07:10:04;3.53;;;2.07;;
1601;SDS011;794;48.592;9.634;2022-07-26T07:12:32;3.43;;;2.40;;
1601;SDS011;794;48.592;9.634;2022-07-26T07:14:58;5.10;;;2.20;;
1601;SDS011;794;48.592;9.634;2022-07-26T07:17:25;4.63;;;2.30;;
1601;SDS011;794;48.592;9.634;2022-07-26T07:19:52;5.33;;;2.03;;
1601;SDS011;794;48.592;9.634;2022-07-26T07:22:19;1.90;;;1.80;;
1601;SDS011;794;48.592;9.634;2022-07-26T07:24:47;2.67;;;2.47;;
1601;SDS011;794;48.592;9.634;2022-07-26T07:27:14;2.17;;;2.00;;
1601;SDS011;794;48.592;9.634;2022-07-26T07:29:41;3.20;;;2.10;;
1601;SDS011;794;48.592;9.634;2022-07-26T07:32:09;3.03;;;2.47;;
1601;SDS011;794;48.592;9.634;2022-07-26T07:34:35;4.83;;;2.40;;
1601;SDS011;794;48.592;9.634;2022-07-26T07:37:02;2.87;;;2.17;;
1601;SDS011;794;48.592;9.634;2022-07-26T07:39:29;2.80;;;2.10;;
1601;SDS011;794;48.592;9.634;2022-07-26T07:41:58;2.37;;;1.90;;
1601;SDS011;794;48.592;9.634;2022-07-26T07:44:25;6.50;;;2.70;;
1601;SDS011;794;48.592;9.634;2022-07-26T07:46:51;3.10;;;2.00;;
1601;SDS011;794;48.592;9.634;2022-07-26T07:49:18;3.60;;;2.30;;
1601;SDS011;794;48.592;9.634;2022-07-26T07:51:46;2.87;;;2.40;;
1601;SDS011;794;48.592;9.634;2022-07-26T07:54:13;4.03;;;2.10;;
1601;SDS011;794;48.592;9.634;2022-07-26T07:56:40;5.40;;;2.60;;
1601;SDS011;794;48.592;9.634;2022-07-26T07:59:08;3.30;;;2.33;;
1601;SDS011;794;48.592;9.634;2022-07-26T08:01:36;2.97;;;2.77;;
1601;SDS011;794;48.592;9.634;2022-07-26T08:04:03;3.30;;;3.00;;
1601;SDS011;794;48.592;9.634;2022-07-26T08:06:30;3.10;;;2.80;;
1601;SDS011;794;48.592;9.634;2022-07-26T08:08:58;6.80;;;2.20;;
1601;SDS011;794;48.592;9.634;2022-07-26T08:11:24;3.40;;;2.30;;
1601;SDS011;794;48.592;9.634;2022-07-26T08:13:51;3.13;;;2.33;;
1601;SDS011;794;48.592;9.634;2022-07-26T08:16:20;2.60;;;1.90;;
1601;SDS011;794;48.592;9.634;2022-07-26T08:18:47;4.33;;;2.40;;
1601;SDS011;794;48.592;9.634;2022-07-26T08:21:14;2.60;;;2.40;;
1601;SDS011;794;48.592;9.634;2022-07-26T08:23:41;2.20;;;2.00;;
1601;SDS011;794;48.592;9.634;2022-07-26T08:26:08;3.00;;;2.10;;
1601;SDS011;794;48.592;9.634;2022-07-26T08:28:35;3.00;;;2.13;;
1601;SDS011;794;48.592;9.634;2022-07-26T08:31:01;5.80;;;2.20;;
1601;SDS011;794;48.592;9.634;2022-07-26T08:33:30;3.53;;;2.87;;
1601;SDS011;794;48.592;9.634;2022-07-26T08:35:56;5.03;;;2.60;;
1601;SDS011;794;48.592;9.634;2022-07-26T08:38:23;6.10;;;2.60;;
1601;SDS011;794;48.592;9.634;2022-07-26T08:40:50;3.40;;;2.03;;
1601;SDS011;794;48.592;9.634;2022-07-26T08:43:18;2.10;;;1.90;;
1601;SDS011;794;48.592;9.634;2022-07-26T08:45:45;2.37;;;2.17;;
1601;SDS011;794;48.592;9.634;2022-07-26T08:48:12;5.90;;;2.17;;
1601;SDS011;794;48.592;9.634;2022-07-26T08:50:40;5.00;;;2.00;;
1601;SDS011;794;48.592;9.634;2022-07-26T08:53:08;2.43;;;2.00;;
1601;SDS011;794;48.592;9.634;2022-07-26T08:55:36;2.23;;;2.00;;
1601;SDS011;794;48.592;9.634;2022-07-26T08:58:03;2.13;;;1.93;;
1601;SDS011;794;48.592;9.634;2022-07-26T09:00:30;3.03;;;1.80;;
1601;SDS011;794;48.592;9.634;2022-07-26T09:02:58;3.83;;;1.90;;
1601;SDS011;794;48.592;9.634;2022-07-26T09:05:27;2.80;;;1.53;;
1601;SDS011;794;48.592;9.634;2022-07-26T09:07:57;3.37;;;1.80;;
1601;SDS011;794;48.592;9.634;2022-07-26T09:10:25;6.60;;;1.90;;
1601;SDS011;794;48.592;9.634;2022-07-26T09:12:53;7.30;;;2.30;;
1601;SDS011;794;48.592;9.634;2022-07-26T09:15:22;4.70;;;2.27;;
1601;SDS011;794;48.592;9.634;2022-07-26T09:17:50;2.13;;;1.70;;
1601;SDS011;794;48.592;9.634;2022-07-26T09:20:19;2.50;;;1.57;;
1601;SDS011;794;48.592;9.634;2022-07-26T09:23:02;2.73;;;1.70;;
1601;SDS011;794;48.592;9.634;2022-07-26T09:25:32;2.53;;;1.43;;
1601;SDS011;794;48.592;9.634;2022-07-26T09:28:01;2.47;;;1.20;;
1601;SDS011;794;48.592;9.634;2022-07-26T09:30:30;2.17;;;1.40;;
1601;SDS011;794;48.592;9.634;2022-07-26T09:32:59;3.60;;;1.43;;
1601;SDS011;794;48.592;9.634;2022-07-26T09:35:28;1.90;;;1.50;;
1601;SDS011;794;48.592;9.634;2022-07-26T09:37:57;2.20;;;1.67;;
1601;SDS011;794;48.592;9.634;2022-07-26T09:40:29;2.67;;;2.10;;
1601;SDS011;794;48.592;9.634;2022-07-26T09:42:58;3.17;;;2.10;;
1601;SDS011;794;48.592;9.634;2022-07-26T09:45:26;4.50;;;1.50;;
1601;SDS011;794;48.592;9.634;2022-07-26T09:47:54;2.00;;;1.27;;
1601;SDS011;794;48.592;9.634;2022-07-26T09:50:22;4.23;;;2.50;;
1601;SDS011;794;48.592;9.634;2022-07-26T09:53:01;2.20;;;1.23;;
1601;SDS011;794;48.592;9.634;2022-07-26T09:55:34;1.97;;;1.27;;
1601;SDS011;794;48.592;9.634;2022-07-26T09:58:02;1.63;;;1.30;;
1601;SDS011;794;48.592;9.634;2022-07-26T10:00:30;1.57;;;1.20;;
1601;SDS011;794;48.592;9.634;2022-07-26T10:02:59;1.30;;;1.20;;
1601;SDS011;794;48.592;9.634;2022-07-26T10:05:26;3.43;;;1.40;;
1601;SDS011;794;48.592;9.634;2022-07-26T10:07:53;1.70;;;1.27;;
1601;SDS011;794;48.592;9.634;2022-07-26T10:10:24;1.50;;;1.40;;
1601;SDS011;794;48.592;9.634;2022-07-26T10:12:57;5.20;;;1.03;;
1601;SDS011;794;48.592;9.634;2022-07-26T10:15:33;2.13;;;1.50;;
1601;SDS011;794;48.592;9.634;2022-07-26T10:18:01;2.20;;;1.20;;
1601;SDS011;794;48.592;9.634;2022-07-26T10:20:40;2.37;;;1.10;;
1601;SDS011;794;48.592;9.634;2022-07-26T10:25:59;2.07;;;1.40;;
1601;SDS011;794;48.592;9.634;2022-07-26T10:28:29;2.97;;;1.20;;
1601;SDS011;794;48.592;9.634;2022-07-26T10:31:21;1.50;;;1.40;;
1601;SDS011;794;48.592;9.634;2022-07-26T10:33:50;3.03;;;1.13;;
1601;SDS011;794;48.592;9.634;2022-07-26T10:36:22;1.60;;;1.33;;
1601;SDS011;794;48.592;9.634;2022-07-26T10:39:04;4.80;;;1.33;;
1601;SDS011;794;48.592;9.634;2022-07-26T10:41:39;2.07;;;1.70;;
1601;SDS011;794;48.592;9.634;2022-07-26T10:44:17;3.13;;;1.10;;
1601;SDS011;794;48.592;9.634;2022-07-26T10:46:55;4.53;;;1.23;;
1601;SDS011;794;48.592;9.634;2022-07-26T10:49:26;3.47;;;1.30;;
1601;SDS011;794;48.592;9.634;2022-07-26T10:52:05;2.70;;;1.10;;
1601;SDS011;794;48.592;9.634;2022-07-26T10:57:44;1.40;;;1.30;;
1601;SDS011;794;48.592;9.634;2022-07-26T11:00:24;1.40;;;1.10;;
1601;SDS011;794;48.592;9.634;2022-07-26T11:02:52;6.10;;;1.20;;
1601;SDS011;794;48.592;9.634;2022-07-26T11:05:21;5.33;;;1.80;;
1601;SDS011;794;48.592;9.634;2022-07-26T11:08:00;2.37;;;1.30;;
1601;SDS011;794;48.592;9.634;2022-07-26T11:10:33;1.20;;;1.07;;
1601;SDS011;794;48.592;9.634;2022-07-26T11:13:11;1.30;;;1.10;;
1601;SDS011;794;48.592;9.634;2022-07-26T11:15:41;2.60;;;1.23;;
1601;SDS011;794;48.592;9.634;2022-07-26T11:18:11;1.73;;;0.97;;
1601;SDS011;794;48.592;9.634;2022-07-26T11:20:47;1.70;;;1.03;;
1601;SDS011;794;48.592;9.634;2022-07-26T11:23:19;1.53;;;0.80;;
1601;SDS011;794;48.592;9.634;2022-07-26T11:25:59;2.73;;;1.10;;
1601;SDS011;794;48.592;9.634;2022-07-26T11:28:50;2.93;;;1.33;;
1601;SDS011;794;48.592;9.634;2022-07-26T11:31:21;4.20;;;1.53;;
1601;SDS011;794;48.592;9.634;2022-07-26T11:33:51;2.70;;;1.27;;
1601;SDS011;794;48.592;9.634;2022-07-26T11:36:30;3.87;;;1.57;;
1601;SDS011;794;48.592;9.634;2022-07-26T11:39:00;2.67;;;1.43;;
1601;SDS011;794;48.592;9.634;2022-07-26T11:41:29;2.30;;;1.40;;
1601;SDS011;794;48.592;9.634;2022-07-26T11:43:57;2.17;;;1.67;;
1601;SDS011;794;48.592;9.634;2022-07-26T11:46:32;3.97;;;1.40;;
1601;SDS011;794;48.592;9.634;2022-07-26T11:49:04;1.20;;;1.10;;
1601;SDS011;794;48.592;9.634;2022-07-26T11:51:38;1.20;;;0.90;;
1601;SDS011;794;48.592;9.634;2022-07-26T11:54:05;3.00;;;1.17;;
1601;SDS011;794;48.592;9.634;2022-07-26T11:56:32;4.73;;;1.23;;
1601;SDS011;794;48.592;9.634;2022-07-26T11:58:59;3.40;;;1.73;;
1601;SDS011;794;48.592;9.634;2022-07-26T12:01:27;1.17;;;1.00;;
1601;SDS011;794;48.592;9.634;2022-07-26T12:03:55;2.70;;;1.33;;
1601;SDS011;794;48.592;9.634;2022-07-26T12:06:23;2.50;;;0.80;;
1601;SDS011;794;48.592;9.634;2022-07-26T12:08:52;2.50;;;0.90;;
1601;SDS011;794;48.592;9.634;2022-07-26T12:11:21;2.30;;;1.37;;
1601;SDS011;794;48.592;9.634;2022-07-26T12:13:56;1.20;;;1.00;;
1601;SDS011;794;48.592;9.634;2022-07-26T12:19:26;1.33;;;1.00;;
1601;SDS011;794;48.592;9.634;2022-07-26T12:21:54;1.73;;;1.10;;
1601;SDS011;794;48.592;9.634;2022-07-26T12:24:43;2.07;;;0.90;;
1601;SDS011;794;48.592;9.634;2022-07-26T12:27:13;1.80;;;1.13;;
1601;SDS011;794;48.592;9.634;2022-07-26T12:29:44;2.97;;;1.00;;
1601;SDS011;794;48.592;9.634;2022-07-26T12:32:13;2.07;;;1.00;;
1601;SDS011;794;48.592;9.634;2022-07-26T12:34:52;2.67;;;1.30;;
1601;SDS011;794;48.592;9.634;2022-07-26T12:37:21;3.27;;;1.30;;
1601;SDS011;794;48.592;9.634;2022-07-26T12:39:58;1.20;;;0.80;;
1601;SDS011;794;48.592;9.634;2022-07-26T12:42:28;3.00;;;1.10;;
1601;SDS011;794;48.592;9.634;2022-07-26T12:44:56;1.30;;;1.20;;
1601;SDS011;794;48.592;9.634;2022-07-26T12:47:24;1.93;;;1.63;;
1601;SDS011;794;48.592;9.634;2022-07-26T12:49:53;1.60;;;0.90;;
1601;SDS011;794;48.592;9.634;2022-07-26T12:52:21;1.30;;;1.10;;
1601;SDS011;794;48.592;9.634;2022-07-26T12:54:49;2.13;;;0.90;;
1601;SDS011;794;48.592;9.634;2022-07-26T12:57:16;1.37;;;0.97;;
1601;SDS011;794;48.592;9.634;2022-07-26T12:59:44;2.60;;;1.17;;
1601;SDS011;794;48.592;9.634;2022-07-26T13:02:11;3.37;;;1.20;;
1601;SDS011;794;48.592;9.634;2022-07-26T13:04:38;1.50;;;1.30;;
1601;SDS011;794;48.592;9.634;2022-07-26T13:07:06;1.97;;;1.00;;
1601;SDS011;794;48.592;9.634;2022-07-26T13:09:33;1.23;;;1.10;;
1601;SDS011;794;48.592;9.634;2022-07-26T13:12:01;2.03;;;0.90;;
1601;SDS011;794;48.592;9.634;2022-07-26T13:14:30;2.37;;;1.13;;
1601;SDS011;794;48.592;9.634;2022-07-26T13:16:58;1.40;;;1.20;;
1601;SDS011;794;48.592;9.634;2022-07-26T13:19:25;2.20;;;1.10;;
1601;SDS011;794;48.592;9.634;2022-07-26T13:21:52;1.90;;;1.20;;
1601;SDS011;794;48.592;9.634;2022-07-26T13:24:21;2.47;;;0.93;;
1601;SDS011;794;48.592;9.634;2022-07-26T13:26:48;2.23;;;1.00;;
1601;SDS011;794;48.592;9.634;2022-07-26T13:29:15;5.37;;;1.40;;
1601;SDS011;794;48.592;9.634;2022-07-26T13:31:42;1.47;;;1.37;;
1601;SDS011;794;48.592;9.634;2022-07-26T13:34:09;3.17;;;1.17;;
1601;SDS011;794;48.592;9.634;2022-07-26T13:36:36;1.83;;;1.00;;
1601;SDS011;794;48.592;9.634;2022-07-26T13:39:04;2.10;;;0.90;;
1601;SDS011;794;48.592;9.634;2022-07-26T13:41:32;1.60;;;1.00;;
1601;SDS011;794;48.592;9.634;2022-07-26T13:43:59;4.10;;;1.00;;
1601;SDS011;794;48.592;9.634;2022-07-26T13:46:26;3.30;;;1.03;;
1601;SDS011;794;48.592;9.634;2022-07-26T13:48:55;1.10;;;0.90;;
1601;SDS011;794;48.592;9.634;2022-07-26T13:51:22;1.57;;;1.10;;
1601;SDS011;794;48.592;9.634;2022-07-26T13:54:11;1.40;;;1.10;;
1601;SDS011;794;48.592;9.634;2022-07-26T13:56:40;1.93;;;1.27;;
1601;SDS011;794;48.592;9.634;2022-07-26T13:59:07;2.53;;;0.90;;
1601;SDS011;794;48.592;9.634;2022-07-26T14:01:34;1.33;;;0.90;;
1601;SDS011;794;48.592;9.634;2022-07-26T14:04:01;3.43;;;1.17;;
1601;SDS011;794;48.592;9.634;2022-07-26T14:06:28;2.63;;;0.97;;
1601;SDS011;794;48.592;9.634;2022-07-26T14:08:55;2.33;;;1.00;;
1601;SDS011;794;48.592;9.634;2022-07-26T14:11:22;1.20;;;1.10;;
1601;SDS011;794;48.592;9.634;2022-07-26T14:13:51;2.07;;;1.30;;
1601;SDS011;794;48.592;9.634;2022-07-26T14:16:18;1.00;;;0.73;;
1601;SDS011;794;48.592;9.634;2022-07-26T14:18:45;1.83;;;0.93;;
1601;SDS011;794;48.592;9.634;2022-07-26T14:21:13;1.33;;;0.90;;
1601;SDS011;794;48.592;9.634;2022-07-26T14:23:40;1.30;;;1.03;;
1601;SDS011;794;48.592;9.634;2022-07-26T14:26:07;1.30;;;1.03;;
1601;SDS011;794;48.592;9.634;2022-07-26T14:28:34;2.83;;;0.90;;
1601;SDS011;794;48.592;9.634;2022-07-26T14:31:02;6.20;;;1.00;;
1601;SDS011;794;48.592;9.634;2022-07-26T14:33:29;1.40;;;0.87;;
1601;SDS011;794;48.592;9.634;2022-07-26T14:35:56;2.90;;;1.57;;
1601;SDS011;794;48.592;9.634;2022-07-26T14:38:23;1.20;;;0.97;;
1601;SDS011;794;48.592;9.634;2022-07-26T14:40:51;2.70;;;1.10;;
1601;SDS011;794;48.592;9.634;2022-07-26T14:43:18;1.37;;;0.90;;
1601;SDS011;794;48.592;9.634;2022-07-26T14:45:44;1.97;;;0.90;;
1601;SDS011;794;48.592;9.634;2022-07-26T14:48:13;2.20;;;0.80;;
1601;SDS011;794;48.592;9.634;2022-07-26T14:50:40;2.50;;;1.30;;
1601;SDS011;794;48.592;9.634;2022-07-26T14:53:09;1.10;;;0.87;;
1601;SDS011;794;48.592;9.634;2022-07-26T14:55:36;2.70;;;1.10;;
1601;SDS011;794;48.592;9.634;2022-07-26T14:58:03;1.17;;;1.00;;
1601;SDS011;794;48.592;9.634;2022-07-26T15:00:30;4.77;;;0.80;;
1601;SDS011;794;48.592;9.634;2022-07-26T15:02:57;2.03;;;1.43;;
1601;SDS011;794;48.592;9.634;2022-07-26T15:05:26;1.93;;;0.80;;
1601;SDS011;794;48.592;9.634;2022-07-26T15:07:53;1.83;;;0.90;;
1601;SDS011;794;48.592;9.634;2022-07-26T15:10:20;0.80;;;0.70;;
1601;SDS011;794;48.592;9.634;2022-07-26T15:12:53;2.33;;;0.80;;
1601;SDS011;794;48.592;9.634;2022-07-26T15:15:20;1.63;;;1.10;;
1601;SDS011;794;48.592;9.634;2022-07-26T15:17:47;1.10;;;1.00;;
1601;SDS011;794;48.592;9.634;2022-07-26T15:20:15;1.60;;;0.80;;
1601;SDS011;794;48.592;9.634;2022-07-26T15:22:46;2.70;;;0.67;;
1601;SDS011;794;48.592;9.634;2022-07-26T15:25:13;1.27;;;0.93;;
1601;SDS011;794;48.592;9.634;2022-07-26T15:27:41;2.80;;;1.10;;
1601;SDS011;794;48.592;9.634;2022-07-26T15:30:09;1.83;;;1.00;;
1601;SDS011;794;48.592;9.634;2022-07-26T15:32:38;1.93;;;0.90;;
1601;SDS011;794;48.592;9.634;2022-07-26T15:35:05;1.73;;;0.80;;
1601;SDS011;794;48.592;9.634;2022-07-26T15:37:33;2.93;;;0.90;;
1601;SDS011;794;48.592;9.634;2022-07-26T15:40:02;1.50;;;0.80;;
1601;SDS011;794;48.592;9.634;2022-07-26T15:42:29;0.80;;;0.70;;
1601;SDS011;794;48.592;9.634;2022-07-26T15:44:57;1.10;;;0.77;;
1601;SDS011;794;48.592;9.634;2022-07-26T15:47:24;1.73;;;1.10;;